Time;durP1;ratioP1;P1;durP2;ratioP2;P2;SDS_P1;SDS_P2;PMS_P1;PMS_P2;Temp;Humidity;BMP_temperature;BMP_pressure;BME280_temperature;BME280_humidity;BME280_pressure;Samples;Min_cycle;Max_cycle;Signal;HPM_P1;HPM_P2
2022/06/16 00:00:31;;;;;;;;;;;;;;;20.80;46.92;100200.00;4349221;32;20009;-82
2022/06/16 00:02:58;;;;;;;;;;;;;;;20.81;46.36;100201.75;4334579;33;20011;-82
2022/06/16 00:05:26;;;;;;;;;;;;;;;20.85;46.47;100198.16;4325478;33;19986;-82
2022/06/16 00:07:53;;;;;;;;;;;;;;;20.84;46.78;100188.53;4326514;33;20032;-82
2022/06/16 00:10:20;;;;;;;;;;;;;;;20.66;47.04;100199.44;4324977;33;20421;-82
2022/06/16 00:12:47;;;;;;;;;;;;;;;20.55;47.58;100193.50;4349194;32;19984;-82
2022/06/16 00:15:15;;;;;;;;;;;;;;;20.80;46.50;100194.75;4326152;33;20390;-82
2022/06/16 00:17:42;;;;;;;;;;;;;;;20.60;47.11;100196.91;4331825;33;19998;-81
2022/06/16 00:20:11;;;;;;;;;;;;;;;20.67;47.39;100198.50;4327702;32;19984;-81
2022/06/16 00:22:38;;;;;;;;;;;;;;;20.72;47.68;100186.16;4327901;33;20074;-81
2022/06/16 00:25:05;;;;;;;;;;;;;;;20.53;48.17;100190.03;4334069;32;20018;-81
2022/06/16 00:27:32;;;;;;;;;;;;;;;20.55;47.67;100188.22;4333120;32;20055;-81
2022/06/16 00:30:00;;;;;;;;;;;;;;;20.50;47.82;100180.41;4332081;33;20484;-82
2022/06/16 00:32:27;;;;;;;;;;;;;;;20.33;48.53;100183.37;4325684;33;19992;-81
2022/06/16 00:34:54;;;;;;;;;;;;;;;20.46;47.72;100177.88;4325793;33;20009;-81
2022/06/16 00:37:22;;;;;;;;;;;;;;;20.51;47.82;100176.00;4348644;32;19983;-82
2022/06/16 00:39:49;;;;;;;;;;;;;;;20.52;48.16;100177.81;4325552;33;20334;-82
2022/06/16 00:42:16;;;;;;;;;;;;;;;20.33;48.31;100177.25;4325635;33;19991;-81
2022/06/16 00:44:44;;;;;;;;;;;;;;;20.60;47.60;100175.87;4325408;33;20064;-82
2022/06/16 00:47:11;;;;;;;;;;;;;;;20.44;48.04;100178.75;4325798;33;19984;-82
2022/06/16 00:49:38;;;;;;;;;;;;;;;20.47;47.66;100179.59;4332917;33;19983;-81
2022/06/16 00:52:10;;;;;;;;;;;;;;;20.59;47.00;100169.75;4331013;33;20094;-82
2022/06/16 00:54:41;;;;;;;;;;;;;;;20.59;46.88;100169.75;4349641;32;20318;-82
2022/06/16 00:57:09;;;;;;;;;;;;;;;20.31;48.09;100169.37;4336513;32;20070;-82
2022/06/16 00:59:35;;;;;;;;;;;;;;;20.29;48.06;100165.87;4355972;32;19987;-82
2022/06/16 01:02:04;;;;;;;;;;;;;;;20.36;47.65;100162.28;4348658;32;20014;-82
2022/06/16 01:07:17;;;;;;;;;;;;;;;20.28;48.08;100153.66;4339528;32;19986;-82
2022/06/16 01:09:44;;;;;;;;;;;;;;;20.24;48.48;100149.34;4330034;33;19996;-82
2022/06/16 01:15:18;;;;;;;;;;;;;;;20.49;47.19;100156.78;4326989;33;19995;-82
2022/06/16 01:17:45;;;;;;;;;;;;;;;20.36;47.74;100150.91;4330677;33;20071;-81
2022/06/16 01:20:21;;;;;;;;;;;;;;;20.13;49.19;100143.41;4324979;33;20051;-82
2022/06/16 01:23:00;;;;;;;;;;;;;;;20.12;49.03;100147.81;4331148;33;19995;-81
2022/06/16 01:25:46;;;;;;;;;;;;;;;20.03;49.88;100137.47;4329477;32;19980;-82
2022/06/16 01:28:32;;;;;;;;;;;;;;;20.13;49.57;100143.41;4358743;32;19992;-82
2022/06/16 01:31:04;;;;;;;;;;;;;;;20.12;49.69;100144.31;4350406;32;20266;-82
2022/06/16 01:33:40;;;;;;;;;;;;;;;19.64;51.42;100141.63;4350008;32;19976;-82
2022/06/16 01:36:10;;;;;;;;;;;;;;;19.87;50.39;100131.59;4326802;33;19988;-82
2022/06/16 01:38:46;;;;;;;;;;;;;;;19.91;50.28;100135.94;4333360;33;19983;-81
2022/06/16 01:41:22;;;;;;;;;;;;;;;20.08;49.66;100124.25;4359731;32;20002;-82
2022/06/16 01:43:53;;;;;;;;;;;;;;;19.87;50.65;100130.75;4329659;32;19998;-82
2022/06/16 01:46:24;;;;;;;;;;;;;;;20.00;49.83;100127.00;4330941;33;19983;-82
2022/06/16 01:48:53;;;;;;;;;;;;;;;19.72;51.19;100142.41;4353343;32;20011;-82
2022/06/16 01:51:39;;;;;;;;;;;;;;;19.90;49.98;100131.56;4349682;32;19998;-82
2022/06/16 01:54:25;;;;;;;;;;;;;;;19.91;50.08;100127.16;4326270;32;19987;-82
2022/06/16 01:56:59;;;;;;;;;;;;;;;19.92;50.13;100129.78;4332151;33;19979;-82
2022/06/16 01:59:28;;;;;;;;;;;;;;;19.89;50.30;100129.81;4365018;32;20039;-82
2022/06/16 02:02:00;;;;;;;;;;;;;;;19.97;49.67;100127.06;4360085;32;20059;-82
2022/06/16 02:04:31;;;;;;;;;;;;;;;20.00;49.14;100120.88;4331617;32;20004;-82
2022/06/16 02:06:58;;;;;;;;;;;;;;;19.85;50.52;100124.66;4351876;32;19992;-82
2022/06/16 02:09:27;;;;;;;;;;;;;;;19.84;50.77;100125.53;4351442;32;20062;-82
2022/06/16 02:11:57;;;;;;;;;;;;;;;19.78;51.15;100118.63;4354265;32;20039;-82
2022/06/16 02:14:38;;;;;;;;;;;;;;;19.58;52.05;100125.94;4359531;32;19992;-82
2022/06/16 02:17:06;;;;;;;;;;;;;;;19.81;50.86;100126.44;4352481;32;20031;-82
2022/06/16 02:19:33;;;;;;;;;;;;;;;19.83;50.55;100129.06;4356724;32;19983;-82
2022/06/16 02:22:01;;;;;;;;;;;;;;;19.83;50.79;100127.31;4360066;32;19985;-82
2022/06/16 02:24:28;;;;;;;;;;;;;;;19.70;51.33;100128.41;4350361;32;20326;-82
2022/06/16 02:26:56;;;;;;;;;;;;;;;19.36;52.71;100128.91;4351183;32;19979;-82
2022/06/16 02:29:29;;;;;;;;;;;;;;;19.57;51.80;100129.47;4332039;32;20325;-82
2022/06/16 02:31:58;;;;;;;;;;;;;;;19.49;52.21;100134.81;4335124;33;20011;-82
2022/06/16 02:34:29;;;;;;;;;;;;;;;19.54;52.28;100125.13;4349549;32;20091;-82
2022/06/16 02:37:15;;;;;;;;;;;;;;;19.67;51.70;100123.19;4326333;33;20030;-82
2022/06/16 02:39:42;;;;;;;;;;;;;;;19.66;51.67;100127.59;4326814;32;20027;-82
2022/06/16 02:42:19;;;;;;;;;;;;;;;19.64;51.72;100124.13;4326928;33;19975;-82
2022/06/16 02:45:02;;;;;;;;;;;;;;;19.62;51.75;100125.00;4312437;32;782560;-82
2022/06/16 02:47:48;;;;;;;;;;;;;;;19.57;51.48;100122.47;4302764;32;19990;-82
2022/06/16 02:50:18;;;;;;;;;;;;;;;19.57;51.77;100132.09;4332964;33;20322;-81
2022/06/16 02:52:46;;;;;;;;;;;;;;;19.61;51.52;100136.41;4349483;32;20047;-82
2022/06/16 02:55:14;;;;;;;;;;;;;;;19.46;52.46;100125.25;4349810;32;20003;-82
2022/06/16 02:57:43;;;;;;;;;;;;;;;19.51;51.95;100135.69;4354875;32;19975;-81
2022/06/16 03:00:13;;;;;;;;;;;;;;;19.59;51.69;100130.28;4334091;32;20361;-82
2022/06/16 03:02:40;;;;;;;;;;;;;;;19.42;52.49;100134.06;4349222;32;20004;-82
2022/06/16 03:05:08;;;;;;;;;;;;;;;19.39;52.35;100136.72;4334475;33;20684;-82
2022/06/16 03:07:36;;;;;;;;;;;;;;;19.66;51.58;100135.47;4326706;33;19971;-84
2022/06/16 03:10:03;;;;;;;;;;;;;;;19.61;51.90;100133.78;4334428;33;19991;-82
2022/06/16 03:12:32;;;;;;;;;;;;;;;19.64;51.83;100128.50;4349118;32;20386;-83
2022/06/16 03:14:59;;;;;;;;;;;;;;;19.69;51.71;100126.69;4326022;33;20579;-82
2022/06/16 03:17:26;;;;;;;;;;;;;;;19.66;51.83;100132.00;4326482;33;19986;-82
2022/06/16 03:19:53;;;;;;;;;;;;;;;19.50;52.79;100131.34;4326456;33;20872;-82
2022/06/16 03:22:19;;;;;;;;;;;;;;;19.39;53.10;100128.00;4326057;33;19991;-82
2022/06/16 03:24:46;;;;;;;;;;;;;;;19.54;52.48;100132.16;4326405;33;19996;-81
2022/06/16 03:27:13;;;;;;;;;;;;;;;19.44;53.03;100132.28;4332614;33;19983;-81
2022/06/16 03:29:41;;;;;;;;;;;;;;;19.42;53.62;100126.19;4353036;32;20006;-82
2022/06/16 03:32:08;;;;;;;;;;;;;;;19.53;52.88;100126.03;4326590;33;20377;-82
2022/06/16 03:34:37;;;;;;;;;;;;;;;19.61;52.36;100133.78;4333987;33;19987;-82
2022/06/16 03:37:04;;;;;;;;;;;;;;;19.66;52.34;100126.72;4326741;32;19969;-82
2022/06/16 03:39:32;;;;;;;;;;;;;;;19.59;52.51;100130.28;4331752;33;20494;-82
2022/06/16 03:42:01;;;;;;;;;;;;;;;19.83;51.61;100127.31;4328849;32;19980;-82
2022/06/16 03:44:28;;;;;;;;;;;;;;;19.82;51.80;100133.47;4332355;32;20262;-82
2022/06/16 03:46:55;;;;;;;;;;;;;;;19.87;51.93;100131.59;4341054;32;20430;-82
2022/06/16 03:49:22;;;;;;;;;;;;;;;20.02;51.32;100132.25;4340972;32;20320;-81
2022/06/16 03:51:49;;;;;;;;;;;;;;;19.89;51.92;100129.81;4334585;32;19987;-82
2022/06/16 03:54:17;;;;;;;;;;;;;;;19.91;52.08;100133.31;4325656;33;20002;-82
2022/06/16 03:56:45;;;;;;;;;;;;;;;19.97;51.93;100127.94;4316152;32;19990;-83
2022/06/16 03:59:12;;;;;;;;;;;;;;;20.05;51.32;100132.19;4325523;33;19972;-82
2022/06/16 04:01:39;;;;;;;;;;;;;;;19.96;51.58;100134.06;4325391;33;20034;-82
2022/06/16 04:04:08;;;;;;;;;;;;;;;19.93;51.74;100131.50;4318227;32;20133;-82
2022/06/16 04:06:38;;;;;;;;;;;;;;;20.06;51.81;100136.53;4333124;33;19993;-82
2022/06/16 04:09:06;;;;;;;;;;;;;;;20.07;51.88;100139.16;4325868;33;19991;-81
2022/06/16 04:11:33;;;;;;;;;;;;;;;20.21;51.92;100141.53;4332920;33;20001;-81
2022/06/16 04:14:00;;;;;;;;;;;;;;;20.34;51.69;100143.03;4335362;32;19998;-81
2022/06/16 04:16:29;;;;;;;;;;;;;;;20.08;53.32;100145.28;4326606;32;20031;-81
2022/06/16 04:18:56;;;;;;;;;;;;;;;20.18;52.33;100157.34;4325574;33;20313;-82
2022/06/16 04:21:23;;;;;;;;;;;;;;;20.33;52.00;100157.06;4328223;33;19996;-82
2022/06/16 04:23:55;;;;;;;;;;;;;;;20.30;52.68;100151.00;4331433;32;19998;-82
2022/06/16 04:26:22;;;;;;;;;;;;;;;20.37;52.57;100153.47;4327330;33;20318;-81
2022/06/16 04:28:49;;;;;;;;;;;;;;;20.36;52.65;100151.75;4332261;33;20366;-79
2022/06/16 04:31:18;;;;;;;;;;;;;;;20.49;51.90;100152.37;4331849;33;20006;-77
2022/06/16 04:33:45;;;;;;;;;;;;;;;20.31;53.25;100153.59;4327551;32;19994;-84
2022/06/16 04:36:13;;;;;;;;;;;;;;;20.62;52.32;100153.03;4327220;32;19979;-80
2022/06/16 04:38:41;;;;;;;;;;;;;;;20.69;52.18;100154.66;4341243;32;19983;-80
2022/06/16 04:41:08;;;;;;;;;;;;;;;20.67;52.61;100161.69;4340453;32;20376;-80
2022/06/16 04:43:36;;;;;;;;;;;;;;;20.78;52.52;100159.72;4339878;32;20036;-80
2022/06/16 04:46:05;;;;;;;;;;;;;;;20.83;52.72;100152.56;4338628;32;20075;-80
2022/06/16 04:48:35;;;;;;;;;;;;;;;20.78;53.13;100157.09;4339752;32;20009;-80
2022/06/16 04:51:03;;;;;;;;;;;;;;;20.93;52.45;100157.66;4360754;32;19991;-80
2022/06/16 04:53:31;;;;;;;;;;;;;;;21.07;51.30;100160.88;4339923;32;19991;-81
2022/06/16 04:56:00;;;;;;;;;;;;;;;21.13;51.21;100155.47;4358753;32;19995;-81
2022/06/16 04:58:29;;;;;;;;;;;;;;;21.26;50.46;100150.81;4345383;32;20001;-80
2022/06/16 05:00:58;;;;;;;;;;;;;;;21.20;50.53;100154.44;4327301;33;20357;-80
2022/06/16 05:03:46;;;;;;;;;;;;;;;21.26;50.28;100151.66;4327688;33;20031;-80
2022/06/16 05:06:14;;;;;;;;;;;;;;;21.31;49.98;100155.06;4327124;33;20046;-80
2022/06/16 05:08:43;;;;;;;;;;;;;;;21.32;50.30;100156.78;4327009;33;20010;-81
2022/06/16 05:11:10;;;;;;;;;;;;;;;21.44;50.00;100157.41;4335491;33;19983;-80
2022/06/16 05:13:37;;;;;;;;;;;;;;;21.42;50.11;100146.06;4329953;32;20005;-80
2022/06/16 05:16:05;;;;;;;;;;;;;;;21.63;50.07;100150.81;4342267;32;20397;-80
2022/06/16 05:18:34;;;;;;;;;;;;;;;21.61;50.19;100152.63;4339805;32;20533;-81
2022/06/16 05:21:02;;;;;;;;;;;;;;;21.65;49.24;100149.00;4332835;32;19988;-80
2022/06/16 05:23:29;;;;;;;;;;;;;;;21.68;49.25;100154.22;4341128;33;19984;-80
2022/06/16 05:25:57;;;;;;;;;;;;;;;21.73;49.14;100151.44;4339397;32;20059;-81
2022/06/16 05:28:24;;;;;;;;;;;;;;;21.71;49.31;100153.28;4333226;32;20035;-81
2022/06/16 05:30:53;;;;;;;;;;;;;;;21.82;47.67;100154.75;4364453;32;19999;-84
2022/06/16 05:33:20;;;;;;;;;;;;;;;21.66;48.42;100150.72;4341966;32;20046;-81
2022/06/16 05:36:00;;;;;;;;;;;;;;;21.77;48.52;100158.41;4339296;32;20320;-81
2022/06/16 05:38:27;;;;;;;;;;;;;;;21.81;47.73;100154.78;4334838;32;20062;-81
2022/06/16 05:40:57;;;;;;;;;;;;;;;22.06;47.26;100155.00;4348208;32;20827;-81
2022/06/16 05:43:24;;;;;;;;;;;;;;;22.09;47.73;100154.94;4325623;33;19976;-81
2022/06/16 05:45:52;;;;;;;;;;;;;;;21.93;48.51;100148.34;4326000;33;20047;-81
2022/06/16 05:48:20;;;;;;;;;;;;;;;22.01;48.47;100148.97;4326150;33;19976;-81
2022/06/16 05:50:48;;;;;;;;;;;;;;;22.19;48.17;100156.44;4326239;33;20014;-81
2022/06/16 05:53:14;;;;;;;;;;;;;;;22.20;47.45;100147.62;4332447;33;19979;-82
2022/06/16 05:55:43;;;;;;;;;;;;;;;22.32;47.51;100150.84;4331119;32;20003;-82
2022/06/16 05:58:10;;;;;;;;;;;;;;;22.46;47.08;100148.69;4332276;32;19980;-81
2022/06/16 06:00:40;;;;;;;;;;;;;;;22.56;47.25;100144.91;4326654;33;19998;-82
2022/06/16 06:03:08;;;;;;;;;;;;;;;22.42;47.28;100152.31;4337886;32;20027;-81
2022/06/16 06:05:36;;;;;;;;;;;;;;;22.64;46.91;100150.81;4329294;32;19988;-81
2022/06/16 06:16:25;;;;;;;;;;;;;;;23.42;44.41;100137.03;4354563;32;20031;-81
2022/06/16 06:18:53;;;;;;;;;;;;;;;23.94;44.91;100135.37;4336590;32;19995;-81
2022/06/16 06:21:58;;;;;;;;;;;;;;;24.29;43.49;100143.88;4352881;32;19995;-81
2022/06/16 06:24:12;;;;;;;;;;;;;;;24.68;43.80;100140.72;4326388;33;20022;-81
2022/06/16 06:26:40;;;;;;;;;;;;;;;24.88;42.30;100146.09;4329391;33;20044;-80
2022/06/16 06:29:06;;;;;;;;;;;;;;;25.29;42.03;100141.03;4335165;32;20010;-81
2022/06/16 06:31:34;;;;;;;;;;;;;;;25.77;40.26;100134.63;4335486;32;20373;-81
2022/06/16 06:34:01;;;;;;;;;;;;;;;25.88;40.18;100140.41;4326354;33;20388;-81
2022/06/16 06:36:28;;;;;;;;;;;;;;;26.09;40.21;100143.06;4327975;33;20003;-80
2022/06/16 06:38:55;;;;;;;;;;;;;;;26.45;39.34;100135.25;4356264;32;20326;-80
2022/06/16 06:41:22;;;;;;;;;;;;;;;26.60;38.58;100139.06;4357430;32;19991;-81
2022/06/16 06:43:49;;;;;;;;;;;;;;;27.06;38.40;100143.13;4326172;33;19991;-81
2022/06/16 06:46:16;;;;;;;;;;;;;;;27.29;38.40;100150.00;4327927;33;20019;-81
2022/06/16 06:48:44;;;;;;;;;;;;;;;27.29;38.02;100147.34;4333201;33;20742;-81
2022/06/16 06:51:11;;;;;;;;;;;;;;;27.61;36.86;100142.28;4332372;33;20497;-81
2022/06/16 06:53:38;;;;;;;;;;;;;;;27.66;38.23;100142.88;4325962;33;20040;-81
2022/06/16 06:56:05;;;;;;;;;;;;;;;27.84;37.89;100134.97;4325869;33;19984;-81
2022/06/16 06:58:33;;;;;;;;;;;;;;;27.73;36.97;100139.00;4348928;32;20302;-81
2022/06/16 07:01:01;;;;;;;;;;;;;;;28.13;36.65;100138.78;4335741;32;20293;-81
2022/06/16 07:03:29;;;;;;;;;;;;;;;28.37;34.62;100139.31;4339673;32;19991;-80
2022/06/16 07:05:56;;;;;;;;;;;;;;;28.44;34.57;100140.75;4338536;32;19994;-80
2022/06/16 07:08:23;;;;;;;;;;;;;;;28.43;36.09;100133.66;4337752;33;19980;-79
2022/06/16 07:10:50;;;;;;;;;;;;;;;28.58;37.21;100138.19;4339017;32;20463;-81
2022/06/16 07:13:17;;;;;;;;;;;;;;;28.74;38.01;100136.41;4337538;32;19991;-81
2022/06/16 07:15:44;;;;;;;;;;;;;;;29.12;36.34;100128.13;4339783;32;19975;-81
2022/06/16 07:18:11;;;;;;;;;;;;;;;29.53;33.58;100127.59;4338891;32;20002;-81
2022/06/16 07:20:38;;;;;;;;;;;;;;;29.38;33.84;100128.47;4361761;32;20011;-81
2022/06/16 07:23:06;;;;;;;;;;;;;;;29.59;34.14;100129.91;4337798;32;20350;-81
2022/06/16 07:25:32;;;;;;;;;;;;;;;29.53;35.80;100132.06;4337130;32;19987;-81
2022/06/16 07:28:00;;;;;;;;;;;;;;;29.90;34.39;100130.81;4330992;33;19983;-81
2022/06/16 07:30:27;;;;;;;;;;;;;;;29.54;33.38;100129.28;4325696;33;19998;-79
2022/06/16 07:32:54;;;;;;;;;;;;;;;29.65;32.84;100124.22;4334394;33;19991;-79
2022/06/16 07:35:22;;;;;;;;;;;;;;;30.03;32.50;100121.09;4328078;32;20047;-80
2022/06/16 07:37:49;;;;;;;;;;;;;;;30.17;33.00;100127.41;4356718;32;19987;-78
2022/06/16 07:40:16;;;;;;;;;;;;;;;30.16;33.46;100125.72;4325840;33;19992;-79
2022/06/16 07:42:44;;;;;;;;;;;;;;;30.39;31.27;100122.50;4324407;33;20005;-79
2022/06/16 07:45:12;;;;;;;;;;;;;;;31.04;30.60;100120.16;4332158;33;20399;-79
2022/06/16 07:47:39;;;;;;;;;;;;;;;30.69;32.27;100121.53;4303293;32;20344;-80
2022/06/16 07:50:08;;;;;;;;;;;;;;;30.72;31.72;100122.19;4332310;33;19984;-81
2022/06/16 07:52:36;;;;;;;;;;;;;;;30.55;32.87;100117.94;4351319;32;20399;-80
2022/06/16 07:55:04;;;;;;;;;;;;;;;30.62;30.09;100112.19;4340817;32;19998;-79
2022/06/16 07:57:34;;;;;;;;;;;;;;;30.47;31.41;100120.25;4340821;32;20326;-80
2022/06/16 08:00:02;;;;;;;;;;;;;;;30.34;32.68;100119.25;4339772;32;19987;-80
2022/06/16 08:02:38;;;;;;;;;;;;;;;30.47;29.11;100120.25;4353202;32;20049;-80
2022/06/16 08:05:07;;;;;;;;;;;;;;;30.81;28.70;100112.78;4337408;33;20373;-79
2022/06/16 08:07:33;;;;;;;;;;;;;;;30.01;29.93;100112.31;4340195;32;20010;-79
2022/06/16 08:10:00;;;;;;;;;;;;;;;30.13;31.06;100108.06;4340523;33;20341;-79
2022/06/16 08:12:27;;;;;;;;;;;;;;;29.48;32.82;100113.62;4340789;32;19994;-80
2022/06/16 08:14:54;;;;;;;;;;;;;;;30.04;31.39;100109.47;4363302;32;19971;-80
2022/06/16 08:17:24;;;;;;;;;;;;;;;30.57;29.03;100109.84;4336892;32;20037;-80
2022/06/16 08:19:53;;;;;;;;;;;;;;;30.30;27.16;100112.38;4331487;33;20031;-80
2022/06/16 08:22:19;;;;;;;;;;;;;;;29.18;29.95;100110.94;4333668;32;20019;-79
2022/06/16 08:24:49;;;;;;;;;;;;;;;29.52;29.23;100114.34;4326216;33;19996;-81
2022/06/16 08:27:17;;;;;;;;;;;;;;;29.16;30.41;100119.03;4330994;33;19997;-81
2022/06/16 08:29:45;;;;;;;;;;;;;;;29.33;27.26;100119.88;4328457;32;19988;-80
2022/06/16 08:32:14;;;;;;;;;;;;;;;28.94;30.04;100118.47;4348252;32;20424;-80
2022/06/16 08:34:41;;;;;;;;;;;;;;;28.84;32.97;100111.94;4348417;32;20019;-80
2022/06/16 08:37:08;;;;;;;;;;;;;;;28.80;31.22;100126.38;4328430;33;20393;-80
2022/06/16 08:39:35;;;;;;;;;;;;;;;29.32;30.29;100123.47;4330514;32;19995;-80
2022/06/16 08:42:24;;;;;;;;;;;;;;;29.64;30.90;100125.19;4317612;32;20334;-81
2022/06/16 08:45:07;;;;;;;;;;;;;;;30.09;27.91;100126.06;4342938;32;19976;-81
2022/06/16 08:47:37;;;;;;;;;;;;;;;29.09;29.42;100122.97;4324331;33;19984;-80
2022/06/16 08:50:14;;;;;;;;;;;;;;;29.16;31.14;100124.38;4324323;33;20031;-80
2022/06/16 08:52:45;;;;;;;;;;;;;;;29.55;27.93;100120.38;4340147;32;20389;-80
2022/06/16 08:55:26;;;;;;;;;;;;;;;29.50;28.98;100126.91;4346839;32;19976;-80
2022/06/16 08:57:56;;;;;;;;;;;;;;;29.66;28.36;100128.63;4329680;33;19991;-80
2022/06/16 09:00:31;;;;;;;;;;;;;;;29.63;28.10;100127.94;4351600;32;19992;-80
2022/06/16 09:03:09;;;;;;;;;;;;;;;29.86;28.14;100123.91;4354549;32;20329;-81
2022/06/16 09:05:36;;;;;;;;;;;;;;;30.02;28.91;100130.03;4325742;32;20566;-80
2022/06/16 09:08:06;;;;;;;;;;;;;;;30.24;30.13;100126.97;4325164;33;19984;-80
2022/06/16 09:10:43;;;;;;;;;;;;;;;29.98;29.38;100128.50;4328720;33;19998;-80
2022/06/16 09:13:22;;;;;;;;;;;;;;;29.85;28.99;100116.84;4351608;32;19983;-80
2022/06/16 09:16:04;;;;;;;;;;;;;;;30.96;26.58;100111.81;4325160;33;20010;-80
2022/06/16 09:18:50;;;;;;;;;;;;;;;30.32;27.09;100115.84;4324340;32;20817;-80
2022/06/16 09:21:33;;;;;;;;;;;;;;;30.50;30.62;100114.66;4345278;32;20031;-80
2022/06/16 09:24:09;;;;;;;;;;;;;;;30.53;28.44;100114.47;4348090;32;19992;-80
2022/06/16 09:26:41;;;;;;;;;;;;;;;30.47;26.06;100109.56;4326570;33;19975;-80
2022/06/16 09:29:16;;;;;;;;;;;;;;;30.99;28.08;100106.25;4332360;33;19984;-79
2022/06/16 09:31:49;;;;;;;;;;;;;;;30.73;29.90;100110.56;4359879;32;20363;-80
2022/06/16 09:34:18;;;;;;;;;;;;;;;30.41;28.27;100104.59;4334911;32;20038;-80
2022/06/16 09:36:50;;;;;;;;;;;;;;;30.77;28.41;100113.94;4325431;32;20495;-78
2022/06/16 09:39:17;;;;;;;;;;;;;;;30.99;25.26;100116.97;4336584;32;20027;-79
2022/06/16 09:44:55;;;;;;;;;;;;;;;30.67;27.59;100096.75;4327012;33;19995;-80
2022/06/16 09:47:25;;;;;;;;;;;;;;;30.92;26.58;100082.69;4349915;32;19980;-79
2022/06/16 09:49:53;;;;;;;;;;;;;;;30.85;24.88;100082.22;4335004;33;19983;-80
2022/06/16 09:52:27;;;;;;;;;;;;;;;31.22;26.58;100085.19;4352540;32;20017;-79
2022/06/16 09:54:55;;;;;;;;;;;;;;;31.64;23.47;100081.47;4353798;32;19999;-79
2022/06/16 09:57:24;;;;;;;;;;;;;;;30.57;24.36;100094.66;4349861;32;19992;-79
2022/06/16 09:59:52;;;;;;;;;;;;;;;30.34;24.45;100093.41;4353893;32;20058;-80
2022/06/16 10:02:25;;;;;;;;;;;;;;;30.84;23.11;100101.91;4334959;32;20026;-80
2022/06/16 10:04:53;;;;;;;;;;;;;;;31.34;22.53;100087.09;4326763;33;19979;-80
2022/06/16 10:07:25;;;;;;;;;;;;;;;31.19;24.40;100090.72;4326733;33;20370;-79
2022/06/16 10:09:58;;;;;;;;;;;;;;;30.46;26.05;100078.41;4354200;32;19991;-80
2022/06/16 10:12:43;;;;;;;;;;;;;;;31.16;26.24;100088.25;4359223;32;20004;-80
2022/06/16 10:15:36;;;;;;;;;;;;;;;31.60;21.93;100089.84;4333291;32;19998;-79
2022/06/16 10:18:03;;;;;;;;;;;;;;;31.96;21.91;100073.94;4349863;32;20046;-80
2022/06/16 10:20:31;;;;;;;;;;;;;;;31.85;24.69;100073.81;4356704;32;19988;-80
2022/06/16 10:23:18;;;;;;;;;;;;;;;32.06;21.59;100073.31;4341363;32;19984;-80
2022/06/16 10:25:48;;;;;;;;;;;;;;;31.97;23.43;100066.75;4326887;33;19971;-80
2022/06/16 10:28:18;;;;;;;;;;;;;;;31.64;22.28;100075.28;4335324;33;20058;-80
2022/06/16 10:30:45;;;;;;;;;;;;;;;31.26;24.53;100082.19;4328169;33;19999;-80
2022/06/16 10:33:13;;;;;;;;;;;;;;;31.83;24.45;100070.38;4360003;32;20002;-80
2022/06/16 10:35:44;;;;;;;;;;;;;;;31.27;23.95;100083.03;4346827;32;20055;-81
2022/06/16 10:38:11;;;;;;;;;;;;;;;31.37;22.56;100086.88;4370491;32;19980;-81
2022/06/16 10:40:39;;;;;;;;;;;;;;;31.38;24.17;100085.91;4348246;32;19995;-81
2022/06/16 10:43:26;;;;;;;;;;;;;;;31.87;22.28;100079.91;4364047;32;19975;-81
2022/06/16 10:45:59;;;;;;;;;;;;;;;31.40;23.63;100089.34;4364335;32;20051;-81
2022/06/16 10:48:30;;;;;;;;;;;;;;;31.96;21.71;100076.62;4339720;32;19994;-80
2022/06/16 10:51:11;;;;;;;;;;;;;;;32.38;21.47;100077.25;4355910;32;20014;-81
2022/06/16 10:53:40;;;;;;;;;;;;;;;31.66;24.38;100084.06;4370207;32;19999;-81
2022/06/16 10:56:10;;;;;;;;;;;;;;;31.79;21.67;100076.91;4364133;32;20467;-82
2022/06/16 10:58:45;;;;;;;;;;;;;;;32.08;21.63;100076.75;4336567;32;20337;-81
2022/06/16 11:01:22;;;;;;;;;;;;;;;32.51;20.74;100071.06;4328483;33;19984;-82
2022/06/16 11:03:50;;;;;;;;;;;;;;;32.72;20.42;100064.16;4328410;33;19980;-81
2022/06/16 11:06:19;;;;;;;;;;;;;;;32.68;20.81;100068.03;4338492;32;20025;-82
2022/06/16 11:08:47;;;;;;;;;;;;;;;32.78;21.98;100052.12;4354135;32;20034;-81
2022/06/16 11:11:17;;;;;;;;;;;;;;;32.74;23.97;100051.50;4340851;32;19983;-81
2022/06/16 11:13:52;;;;;;;;;;;;;;;32.70;23.28;100041.94;4340178;32;19984;-82
2022/06/16 11:16:27;;;;;;;;;;;;;;;32.91;22.20;100044.03;4363401;32;19994;-81
2022/06/16 11:18:55;;;;;;;;;;;;;;;33.05;20.72;100038.53;4337980;32;19968;-82
2022/06/16 11:21:28;;;;;;;;;;;;;;;33.35;21.63;100030.03;4363489;32;19991;-81
2022/06/16 11:23:56;;;;;;;;;;;;;;;33.43;20.82;100026.75;4340748;32;19979;-81
2022/06/16 11:26:29;;;;;;;;;;;;;;;32.74;24.84;100029.16;4361947;32;20091;-81
2022/06/16 11:29:11;;;;;;;;;;;;;;;32.33;23.36;100020.47;4363840;32;20014;-81
2022/06/16 11:31:41;;;;;;;;;;;;;;;32.53;22.83;100015.53;4339138;33;20476;-81
2022/06/16 11:34:12;;;;;;;;;;;;;;;31.93;23.69;100012.56;4338838;32;20006;-81
2022/06/16 11:36:57;;;;;;;;;;;;;;;32.74;20.89;100013.09;4340471;32;20029;-81
2022/06/16 11:39:43;;;;;;;;;;;;;;;32.76;20.56;100012.00;4337860;33;19975;-82
2022/06/16 11:42:15;;;;;;;;;;;;;;;33.13;21.31;100013.84;4338361;32;19987;-81
2022/06/16 11:44:55;;;;;;;;;;;;;;;33.40;19.79;100005.50;4364250;32;20054;-81
2022/06/16 11:47:41;;;;;;;;;;;;;;;32.88;21.02;100000.37;4334004;32;19998;-81
2022/06/16 11:50:28;;;;;;;;;;;;;;;32.87;22.31;100009.41;4330986;33;19983;-83
2022/06/16 11:53:01;;;;;;;;;;;;;;;32.99;21.96;99993.37;4331517;32;20357;-82
2022/06/16 11:55:30;;;;;;;;;;;;;;;33.41;20.08;99985.72;4340040;33;19987;-82
2022/06/16 11:58:13;;;;;;;;;;;;;;;33.25;21.45;99981.56;4332484;32;19991;-84
2022/06/16 12:00:42;;;;;;;;;;;;;;;33.46;19.84;99979.03;4342326;32;20059;-81
2022/06/16 12:03:49;;;;;;;;;;;;;;;32.75;23.62;99988.84;4344073;32;19980;-81
2022/06/16 12:06:18;;;;;;;;;;;;;;;32.21;23.19;99989.19;4346768;32;20343;-82
2022/06/16 12:08:49;;;;;;;;;;;;;;;32.78;21.57;99980.59;4354535;32;20007;-82
2022/06/16 12:11:26;;;;;;;;;;;;;;;33.36;20.46;99982.56;4341859;32;19989;-82
2022/06/16 12:14:16;;;;;;;;;;;;;;;32.62;20.04;99988.91;4360405;32;19999;-82
2022/06/16 12:16:52;;;;;;;;;;;;;;;32.86;22.59;99985.37;4340825;32;19986;-82
2022/06/16 12:19:19;;;;;;;;;;;;;;;33.32;20.35;99982.78;4338177;32;19987;-81
2022/06/16 12:21:48;;;;;;;;;;;;;;;33.32;19.60;99976.59;4340115;32;20326;-81
2022/06/16 12:24:18;;;;;;;;;;;;;;;33.15;21.57;99985.87;4361211;32;20542;-82
2022/06/16 12:26:58;;;;;;;;;;;;;;;33.14;21.25;99980.66;4337883;32;19991;-79
2022/06/16 12:29:34;;;;;;;;;;;;;;;32.89;22.68;99980.63;4348423;32;20054;-80
2022/06/16 12:32:20;;;;;;;;;;;;;;;32.10;22.67;99989.09;4363012;32;20005;-80
2022/06/16 12:34:57;;;;;;;;;;;;;;;32.62;22.06;99988.91;4338709;33;20031;-80
2022/06/16 12:37:26;;;;;;;;;;;;;;;32.94;21.32;99982.97;4359346;32;20017;-81
2022/06/16 12:40:13;;;;;;;;;;;;;;;33.38;20.72;99980.59;4362223;32;19992;-82
2022/06/16 12:42:43;;;;;;;;;;;;;;;33.27;22.34;99979.59;4362753;32;19984;-81
2022/06/16 12:45:22;;;;;;;;;;;;;;;32.72;23.33;99973.00;4339728;32;20066;-80
2022/06/16 12:47:50;;;;;;;;;;;;;;;33.14;20.75;99965.41;4360017;32;20344;-80
2022/06/16 12:50:23;;;;;;;;;;;;;;;33.24;21.06;99953.00;4332840;32;20054;-81
2022/06/16 12:52:58;;;;;;;;;;;;;;;32.93;22.87;99948.22;4360248;32;19980;-81
2022/06/16 12:55:31;;;;;;;;;;;;;;;32.79;20.90;99947.44;4362253;32;20003;-82
2022/06/16 12:58:02;;;;;;;;;;;;;;;33.16;21.25;99944.69;4360727;32;20027;-82
2022/06/16 13:00:31;;;;;;;;;;;;;;;32.94;23.32;99949.94;4362178;32;20002;-82
2022/06/16 13:03:00;;;;;;;;;;;;;;;33.18;22.85;99940.06;4362156;32;20467;-82
2022/06/16 13:05:28;;;;;;;;;;;;;;;33.42;21.82;99925.72;4362212;32;19991;-83
2022/06/16 13:08:01;;;;;;;;;;;;;;;33.58;22.18;99915.53;4336492;32;19987;-82
2022/06/16 13:10:33;;;;;;;;;;;;;;;32.60;23.19;99914.94;4357860;32;20042;-82
2022/06/16 13:13:00;;;;;;;;;;;;;;;31.74;24.61;99915.75;4353654;32;19995;-82